Detalii statie AGRIND TASNAD [0000197A]

Toti senzorii

Date Temperatura solului [C]Precipitatii [mm]Voltaj baterie [mV]Leaf Wetness [Min]HC Air temperature [C]HC Relative humidity [%]Punctul de roua [C]
medieminmaxsumaultimatimpmedieminmaxmediemediemin
2019-06-17 18:00:00 24.7 24.7 24.7 0 7264 27.19 27.19 27.2 68.03 20.6 20.5
2019-06-17 18:10:00 24.7 24.7 24.7 0 7206 27.12 27.07 27.17 69.78 21 20.9
2019-06-17 18:20:00 24.7 24.7 24.7 0 7264 26.51 26.29 26.74 74.83 21.4 21.4
2019-06-17 18:30:00 24.6 24.5 24.7 0 7166 26.1 26.06 26.14 76.63 21.6 21.5
2019-06-17 18:40:00 24.5 24.5 24.6 0 7264 25.89 25.81 25.98 78.23 21.6 21.3
2019-06-17 18:50:00 24.6 24.6 24.6 0 7246 25.69 25.67 25.72 81.38 22.1 22
2019-06-17 19:00:00 24.5 24.5 24.6 0 7138 25.47 25.38 25.56 80.46 21.7 21.6
2019-06-17 19:10:00 24.5 24.5 24.5 0 6982 25.17 25.15 25.2 81.25 21.6 21.6
2019-06-17 19:20:00 24.3 24.2 24.5 0 7000 24.86 24.74 24.98 83.73 21.8 21.8
2019-06-17 19:30:00 24.5 24.5 24.5 0 7000 24.39 24.3 24.48 85.56 21.6 21.5
2019-06-17 19:40:00 24.3 24.3 24.3 0 7010 24.19 24.18 24.2 90.09 22.3 22.3
2019-06-17 19:50:00 24.3 24.3 24.3 0 7010 24.01 23.94 24.08 90.46 22.2 22.2
2019-06-17 20:00:00 24.3 24.3 24.3 0 7000 23.74 23.68 23.8 90.81 22 21.9
2019-06-17 20:10:00 24.3 24.3 24.3 0 6942 23.59 23.57 23.61 90.76 21.8 21.8
2019-06-17 20:20:00 24.2 24.2 24.2 0 6952 23.32 23.21 23.43 93.26 22 22
2019-06-17 20:30:00 24 24 24.1 0 6952 22.9 22.79 23.01 94.07 21.7 21.7
2019-06-17 20:40:00 24 24 24.1 0 6942 22.45 22.36 22.55 94.71 21.4 21.3
2019-06-17 20:50:00 24 24 24.1 0 6942 22.18 22.12 22.24 94.52 21.1 21.1
2019-06-17 21:00:00 24.1 24.1 24.2 0 6942 21.89 21.83 21.96 95.16 21 21
2019-06-17 21:10:00 23.8 23.8 23.9 0 6904 21.63 21.61 21.66 94.57 20.6 20.4
2019-06-17 21:20:00 23.8 23.8 23.8 0 6922 21.52 21.51 21.53 93.37 20.3 20.3
2019-06-17 21:30:00 23.8 23.8 23.8 0 6932 21.35 21.33 21.38 93.95 20.2 20.1
2019-06-17 21:40:00 23.7 23.6 23.8 0 6932 21.17 21.1 21.24 94.49 20.1 20.1
2019-06-17 21:50:00 23.7 23.7 23.7 0 6932 20.95 20.87 21.04 94.83 20 19.8
2019-06-17 22:00:00 23.6 23.5 23.7 0 6932 20.81 20.78 20.84 93.68 19.5 19.5
2019-06-17 22:10:00 23.6 23.5 23.7 0 6894 20.51 20.43 20.59 93.83 19.2 19.2
2019-06-17 22:20:00 23.5 23.4 23.6 0 6914 20.21 20.12 20.31 94.48 19.2 19.1
2019-06-17 22:30:00 23.5 23.4 23.6 0 6922 20.08 20.02 20.15 95.09 19.2 19.2
2019-06-17 22:40:00 23.4 23.4 23.5 0 6922 20.08 20.07 20.09 94.28 19 19
2019-06-17 22:50:00 23.3 23.1 23.5 0 6932 20.05 20.02 20.08 93.81 18.8 18.8
2019-06-17 23:00:00 23.3 23.2 23.5 0 6922 19.9 19.84 19.97 95.02 19 19
2019-06-17 23:10:00 23.2 23.2 23.3 0 6894 19.54 19.43 19.65 95.26 18.6 18.6
2019-06-17 23:20:00 23.2 23.2 23.2 0 6914 19.06 18.93 19.19 98.03 18.6 18.6
2019-06-17 23:30:00 23.1 23 23.2 0 6914 18.67 18.59 18.75 100 18.6 18.5
2019-06-17 23:40:00 23.2 22.9 23.5 0 6922 18.36 18.3 18.42 100 18.3 18.3
2019-06-17 23:50:00 23.1 23 23.2 0 6922 18.41 18.39 18.44 100 18.3 18.3
2019-06-18 00:00:00 22.9 22.8 23.1 0 6922 18.84 18.74 18.95 100 18.8 18.7
2019-06-18 00:10:00 22.8 22.8 22.9 0 6854 18.96 18.93 18.99 99.23 18.7 18.7
2019-06-18 00:20:00 22.8 22.8 22.9 0 6894 18.8 18.8 18.81 99.49 18.6 18.6
2019-06-18 00:30:00 22.7 22.7 22.8 0 6904 18.5 18.33 18.68 100 18.4 18.3
2019-06-18 00:40:00 22.6 22.6 22.7 0 6914 18.13 18.12 18.14 100 18.1 18.1
2019-06-18 00:50:00 22.7 22.6 22.8 0 6922 18.21 18.07 18.35 100 18.1 18
2019-06-18 01:00:00 22.6 22.6 22.6 0 6914 18.33 18.32 18.35 100 18.3 18.3
2019-06-18 01:10:00 22.6 22.6 22.6 0 6874 18.54 18.51 18.58 99.34 18.3 18.3
2019-06-18 01:20:00 22.4 22.4 22.5 0 6894 18.24 18.2 18.29 99.88 18.1 18
2019-06-18 01:30:00 22.5 22.4 22.7 0 6904 18.12 18.11 18.14 100 18.1 18.1
2019-06-18 01:40:00 22.4 22.4 22.4 0 6904 17.9 17.87 17.93 100 17.8 17.8
2019-06-18 01:50:00 22.3 22.3 22.4 0 6914 18.08 18.08 18.08 100 18 18